createdAt,value
2022-11-15T00:01:49.072Z,100977.00
2022-11-15T00:06:10.086Z,100978.88
2022-11-15T00:10:30.334Z,100975.25
2022-11-15T00:14:50.683Z,100962.63
2022-11-15T00:19:10.829Z,100959.53
2022-11-15T00:23:31.679Z,100960.44
2022-11-15T00:27:56.382Z,100946.88
2022-11-15T00:32:17.573Z,100945.44
2022-11-15T00:36:37.727Z,100935.53
2022-11-15T00:40:58.482Z,100938.78
2022-11-15T00:45:18.689Z,100927.22
2022-11-15T00:49:39.242Z,100925.72
2022-11-15T00:53:59.637Z,100913.38
2022-11-15T00:58:20.045Z,100909.44
2022-11-15T01:02:40.488Z,100900.91
2022-11-15T01:07:01.046Z,100895.72
2022-11-15T01:11:21.567Z,100892.19
2022-11-15T01:15:42.485Z,100889.53
2022-11-15T01:20:04.034Z,100877.09
2022-11-15T01:24:24.288Z,100870.88
2022-11-15T01:28:44.457Z,100865.44
2022-11-15T01:33:05.543Z,100850.75
2022-11-15T01:37:25.814Z,100844.56
2022-11-15T01:41:46.371Z,100842.06
2022-11-15T01:46:26.394Z,100829.19
2022-11-15T01:50:46.860Z,100830.75
2022-11-15T01:55:23.011Z,100838.47
2022-11-15T01:59:46.521Z,100827.19
2022-11-15T02:04:14.091Z,100813.25
2022-11-15T02:08:34.638Z,100823.56
2022-11-15T02:12:57.161Z,100823.97
2022-11-15T02:17:23.427Z,100819.84
2022-11-15T02:21:53.425Z,100822.09
2022-11-15T02:26:29.067Z,100819.22
2022-11-15T02:30:55.954Z,100816.47
2022-11-15T02:35:46.734Z,100819.00
2022-11-15T02:40:39.386Z,100816.94
2022-11-15T02:45:04.794Z,100819.59
2022-11-15T02:49:29.270Z,100817.25
2022-11-15T02:53:49.652Z,100809.91
2022-11-15T02:58:19.422Z,100792.31
2022-11-15T03:02:57.640Z,100782.41
2022-11-15T03:07:44.542Z,100784.09
2022-11-15T03:12:11.682Z,100777.63
2022-11-15T03:16:44.692Z,100783.13
2022-11-15T03:21:09.450Z,100773.47
2022-11-15T03:25:32.876Z,100770.84
2022-11-15T03:30:00.679Z,100757.53
2022-11-15T03:34:28.057Z,100748.78
2022-11-15T03:38:49.135Z,100749.78
2022-11-15T03:43:30.079Z,100738.28
2022-11-15T03:47:54.779Z,100726.09
2022-11-15T03:52:19.757Z,100715.81
2022-11-15T03:56:39.805Z,100723.88
2022-11-15T04:01:00.709Z,100726.00
2022-11-15T04:05:21.565Z,100722.44
2022-11-15T04:10:00.613Z,100723.47
2022-11-15T04:14:20.953Z,100711.97
2022-11-15T04:18:42.215Z,100691.28
2022-11-15T04:23:26.292Z,100695.28
2022-11-15T04:27:46.977Z,100696.94
2022-11-15T04:32:08.102Z,100689.81
2022-11-15T04:36:47.380Z,100679.38
2022-11-15T04:41:07.915Z,100681.63
2022-11-15T04:45:28.138Z,100670.94
2022-11-15T04:49:48.420Z,100672.66
2022-11-15T04:54:09.250Z,100679.41
2022-11-15T04:58:29.387Z,100677.84
2022-11-15T05:03:13.010Z,100671.94
2022-11-15T05:07:32.895Z,100676.75
2022-11-15T05:11:53.326Z,100670.94
2022-11-15T05:16:13.381Z,100669.22
2022-11-15T05:20:33.933Z,100663.56
2022-11-15T05:24:54.324Z,100650.34
2022-11-15T05:29:14.825Z,100650.06
2022-11-15T05:33:36.965Z,100665.44
2022-11-15T05:37:57.723Z,100661.63
2022-11-15T05:42:18.083Z,100660.06
2022-11-15T05:46:41.343Z,100664.88
2022-11-15T05:51:03.192Z,100669.00
2022-11-15T05:55:23.794Z,100650.84
2022-11-15T05:59:44.521Z,100660.50
2022-11-15T06:04:05.103Z,100658.78
2022-11-15T06:08:25.669Z,100663.56
2022-11-15T06:12:46.318Z,100670.91
2022-11-15T06:17:11.173Z,100663.66
2022-11-15T06:21:31.895Z,100667.13
2022-11-15T06:25:52.288Z,100667.22
2022-11-15T06:30:12.989Z,100667.06
2022-11-15T06:34:33.276Z,100670.81
2022-11-15T06:38:53.664Z,100669.44
2022-11-15T06:43:15.576Z,100675.97
2022-11-15T06:47:36.007Z,100680.84
2022-11-15T06:51:56.597Z,100689.63
2022-11-15T06:56:16.865Z,100684.63
2022-11-15T07:00:37.396Z,100687.72
2022-11-15T07:04:57.729Z,100695.75
2022-11-15T07:09:18.309Z,100696.31
2022-11-15T07:13:38.815Z,100690.84
2022-11-15T07:18:02.196Z,100692.09
2022-11-15T07:22:22.214Z,100688.06
2022-11-15T07:26:42.852Z,100693.13
2022-11-15T07:31:08.612Z,100684.41
2022-11-15T07:35:29.667Z,100678.41
2022-11-15T07:39:49.812Z,100674.09
2022-11-15T07:44:10.393Z,100672.38
2022-11-15T07:48:42.995Z,100662.16
2022-11-15T07:53:04.944Z,100659.50
2022-11-15T07:57:25.238Z,100661.38
2022-11-15T08:01:46.208Z,100648.59
2022-11-15T08:06:06.988Z,100637.81
2022-11-15T08:10:28.507Z,100621.78
2022-11-15T08:14:49.354Z,100620.09
2022-11-15T08:19:09.648Z,100607.47
2022-11-15T08:23:30.008Z,100602.38
2022-11-15T08:27:53.656Z,100593.00
2022-11-15T08:32:13.806Z,100599.72
2022-11-15T08:36:43.040Z,100589.41
2022-11-15T08:41:07.111Z,100584.78
2022-11-15T08:45:27.463Z,100584.09
2022-11-15T08:49:48.060Z,100573.81
2022-11-15T08:54:08.593Z,100579.22
2022-11-15T08:58:29.763Z,100573.09
2022-11-15T09:02:50.252Z,100566.00
2022-11-15T09:07:12.435Z,100565.84
2022-11-15T09:11:32.952Z,100551.66
2022-11-15T09:15:53.191Z,100547.94
2022-11-15T09:20:13.583Z,100553.81
2022-11-15T09:24:33.770Z,100545.34
2022-11-15T09:28:54.348Z,100530.28
2022-11-15T09:33:14.889Z,100526.38
2022-11-15T09:37:35.319Z,100522.41
2022-11-15T09:42:13.698Z,100522.69
2022-11-15T09:46:46.469Z,100527.59
2022-11-15T09:51:13.637Z,100507.56
2022-11-15T09:55:22.258Z,100502.97
2022-11-15T09:59:45.551Z,100496.72
2022-11-15T10:03:47.486Z,100498.16
2022-11-15T10:08:37.007Z,100492.09
2022-11-15T10:12:40.690Z,100484.16
2022-11-15T10:16:48.367Z,100480.66
2022-11-15T10:20:51.713Z,100480.66
2022-11-15T10:25:13.706Z,100489.63
2022-11-15T10:29:26.818Z,100484.66
2022-11-15T10:33:37.605Z,100483.75
2022-11-15T10:37:41.899Z,100472.25
2022-11-15T10:41:43.713Z,100468.09
2022-11-15T10:45:46.840Z,100460.28
2022-11-15T10:49:58.880Z,100455.31
2022-11-15T10:54:02.092Z,100448.84
2022-11-15T10:58:07.881Z,100450.88
2022-11-15T11:02:33.315Z,100444.69
2022-11-15T11:06:55.171Z,100443.25
2022-11-15T11:11:03.157Z,100429.38
2022-11-15T11:15:13.008Z,100429.59
2022-11-15T11:19:38.313Z,100422.38
2022-11-15T11:23:42.897Z,100421.38
2022-11-15T11:28:00.236Z,100426.78
2022-11-15T11:32:23.592Z,100425.69
2022-11-15T11:36:28.212Z,100419.28
2022-11-15T11:41:00.493Z,100420.47
2022-11-15T11:45:14.610Z,100411.66
2022-11-15T11:49:18.742Z,100399.22
2022-11-15T11:53:42.056Z,100393.66
2022-11-15T11:58:02.389Z,100391.47
2022-11-15T12:02:19.182Z,100382.59
2022-11-15T12:06:38.530Z,100371.69
2022-11-15T12:10:42.582Z,100367.75
2022-11-15T12:14:49.162Z,100362.41
2022-11-15T12:18:54.221Z,100366.56
2022-11-15T12:23:14.357Z,100365.56
2022-11-15T12:27:30.807Z,100353.94
2022-11-15T12:31:35.228Z,100356.19
2022-11-15T12:35:43.538Z,100344.72
2022-11-15T12:40:06.676Z,100350.25
2022-11-15T12:44:13.966Z,100343.03
2022-11-15T12:48:18.605Z,100339.13
2022-11-15T12:52:21.095Z,100344.59
2022-11-15T12:56:23.925Z,100337.66
2022-11-15T13:00:26.203Z,100333.56
2022-11-15T13:04:29.207Z,100331.09
2022-11-15T13:08:40.462Z,100337.50
2022-11-15T13:12:45.174Z,100322.19
2022-11-15T13:16:48.554Z,100327.81
2022-11-15T13:20:50.253Z,100326.91
2022-11-15T13:24:52.571Z,100318.53
2022-11-15T13:28:56.409Z,100327.19
2022-11-15T13:33:08.880Z,100310.63
2022-11-15T13:37:29.725Z,100301.88
2022-11-15T13:41:37.266Z,100303.28
2022-11-15T13:45:38.979Z,100298.16
2022-11-15T13:49:41.734Z,100303.22
2022-11-15T13:53:49.667Z,100293.13
2022-11-15T13:57:59.676Z,100293.00
2022-11-15T14:02:18.549Z,100285.69
2022-11-15T14:06:23.603Z,100292.19
2022-11-15T14:10:28.762Z,100302.22
2022-11-15T14:14:31.023Z,100298.63
2022-11-15T14:18:44.818Z,100288.91
2022-11-15T14:23:04.770Z,100282.97
2022-11-15T14:27:23.565Z,100279.50
2022-11-15T14:31:25.421Z,100280.22
2022-11-15T14:35:27.540Z,100273.69
2022-11-15T14:39:29.164Z,100267.44
2022-11-15T14:43:31.085Z,100267.00
2022-11-15T14:47:32.733Z,100273.97
2022-11-15T14:51:34.710Z,100271.81
2022-11-15T14:55:37.040Z,100277.72
2022-11-15T14:59:42.297Z,100278.00
2022-11-15T15:03:45.802Z,100283.00
2022-11-15T15:07:49.227Z,100277.22
2022-11-15T15:11:51.220Z,100277.84
2022-11-15T15:15:53.730Z,100268.50
2022-11-15T15:19:55.559Z,100271.88
2022-11-15T15:23:58.209Z,100281.53
2022-11-15T15:28:00.430Z,100271.94
2022-11-15T15:32:02.455Z,100270.25
2022-11-15T15:36:04.601Z,100258.69
2022-11-15T15:40:14.863Z,100267.91
2022-11-15T15:44:16.719Z,100269.41
2022-11-15T15:48:18.707Z,100269.19
2022-11-15T15:52:20.399Z,100265.38
2022-11-15T15:56:22.335Z,100254.44
2022-11-15T16:00:25.984Z,100260.16
2022-11-15T16:04:29.831Z,100248.66
2022-11-15T16:08:47.448Z,100250.63
2022-11-15T16:12:50.062Z,100252.47
2022-11-15T16:16:51.854Z,100253.03
2022-11-15T16:20:57.599Z,100263.66
2022-11-15T16:24:59.405Z,100263.59
2022-11-15T16:29:01.421Z,100239.91
2022-11-15T16:33:03.094Z,100248.75
2022-11-15T16:37:05.780Z,100251.22
2022-11-15T16:41:07.695Z,100249.72
2022-11-15T16:45:12.931Z,100250.41
2022-11-15T16:49:15.469Z,100256.84
2022-11-15T16:53:18.047Z,100256.53
2022-11-15T16:57:19.728Z,100255.00
2022-11-15T17:01:35.701Z,100249.25
2022-11-15T17:05:37.664Z,100255.28
2022-11-15T17:09:39.670Z,100248.06
2022-11-15T17:13:41.481Z,100262.41
2022-11-15T17:17:45.662Z,100256.59
2022-11-15T17:21:51.767Z,100262.03
2022-11-15T17:26:23.874Z,100253.66
2022-11-15T17:30:26.413Z,100256.81
2022-11-15T17:34:28.376Z,100259.09
2022-11-15T17:38:30.719Z,100264.81
2022-11-15T17:42:32.975Z,100265.69
2022-11-15T17:46:36.327Z,100264.00
2022-11-15T17:50:38.573Z,100261.50
2022-11-15T17:54:40.233Z,100257.59
2022-11-15T17:58:47.030Z,100258.34
2022-11-15T18:02:48.645Z,100252.66
2022-11-15T18:06:50.631Z,100256.97
2022-11-15T18:11:05.523Z,100257.72
2022-11-15T18:15:08.204Z,100242.97
2022-11-15T18:19:13.559Z,100235.50
2022-11-15T18:23:16.730Z,100230.88
2022-11-15T18:27:18.514Z,100234.94
2022-11-15T18:31:22.685Z,100235.84
2022-11-15T18:35:24.308Z,100239.03
2022-11-15T18:39:26.567Z,100235.66
2022-11-15T18:43:28.207Z,100235.28
2022-11-15T18:47:31.673Z,100236.44
2022-11-15T18:51:35.727Z,100240.63
2022-11-15T18:55:37.727Z,100242.75
2022-11-15T18:59:39.405Z,100249.66
2022-11-15T19:03:44.295Z,100246.72
2022-11-15T19:07:48.733Z,100258.38
2022-11-15T19:11:51.748Z,100252.25
2022-11-15T19:15:58.683Z,100237.84
2022-11-15T19:20:00.704Z,100232.69
2022-11-15T19:24:02.509Z,100228.44
2022-11-15T19:28:04.786Z,100225.63
2022-11-15T19:32:06.429Z,100232.63
2022-11-15T19:36:13.421Z,100232.13
2022-11-15T19:40:15.200Z,100226.34
2022-11-15T19:44:18.875Z,100226.28
2022-11-15T19:48:20.790Z,100230.44
2022-11-15T19:52:24.326Z,100227.03
2022-11-15T19:56:25.928Z,100222.69
2022-11-15T20:00:27.856Z,100215.41
2022-11-15T20:04:29.721Z,100217.44
2022-11-15T20:08:32.485Z,100214.09
2022-11-15T20:12:34.234Z,100201.78
2022-11-15T20:16:36.403Z,100210.56
2022-11-15T20:20:38.126Z,100213.63
2022-11-15T20:24:40.016Z,100205.63
2022-11-15T20:28:41.856Z,100200.66
2022-11-15T20:32:43.802Z,100201.69
2022-11-15T20:36:45.541Z,100206.19
2022-11-15T20:40:49.692Z,100213.16
2022-11-15T20:44:51.321Z,100212.00
2022-11-15T20:48:53.444Z,100210.84
2022-11-15T20:52:57.923Z,100221.69
2022-11-15T20:56:59.843Z,100214.72
2022-11-15T21:01:01.692Z,100208.16
2022-11-15T21:05:04.000Z,100198.69
2022-11-15T21:09:24.438Z,100204.97
2022-11-15T21:13:26.828Z,100200.66
2022-11-15T21:17:29.045Z,100201.53
2022-11-15T21:21:31.115Z,100209.00
2022-11-15T21:25:33.905Z,100205.28
2022-11-15T21:29:38.992Z,100200.59
2022-11-15T21:33:40.577Z,100196.28
2022-11-15T21:37:42.552Z,100188.63
2022-11-15T21:41:44.765Z,100180.53
2022-11-15T21:45:58.453Z,100185.50
2022-11-15T21:50:00.097Z,100171.25
2022-11-15T21:54:02.229Z,100164.25
2022-11-15T21:58:03.814Z,100166.09
2022-11-15T22:02:15.355Z,100161.09
2022-11-15T22:06:18.207Z,100153.41
2022-11-15T22:10:20.523Z,100153.09
2022-11-15T22:14:22.332Z,100147.94
2022-11-15T22:18:26.728Z,100143.81
2022-11-15T22:22:28.597Z,100143.56
2022-11-15T22:26:30.609Z,100134.25
2022-11-15T22:30:32.597Z,100128.94
2022-11-15T22:34:34.548Z,100121.47
2022-11-15T22:38:36.967Z,100116.06
2022-11-15T22:42:39.237Z,100117.31
2022-11-15T22:46:40.986Z,100119.91
2022-11-15T22:50:44.276Z,100122.88
2022-11-15T22:54:45.994Z,100113.16
2022-11-15T22:58:48.059Z,100108.91
2022-11-15T23:02:54.214Z,100113.72
2022-11-15T23:06:56.910Z,100098.44
2022-11-15T23:11:21.574Z,100105.84
2022-11-15T23:15:23.593Z,100094.41
2022-11-15T23:19:25.442Z,100091.13
2022-11-15T23:23:27.394Z,100098.94
2022-11-15T23:27:29.120Z,100100.97
2022-11-15T23:32:00.729Z,100103.44
2022-11-15T23:36:04.022Z,100107.94
2022-11-15T23:40:07.061Z,100103.25
2022-11-15T23:44:10.081Z,100087.69
2022-11-15T23:48:12.142Z,100083.22
2022-11-15T23:52:15.457Z,100087.41
2022-11-15T23:56:19.312Z,100080.84
